sensor_id;sensor_type;location;lat;lon;timestamp;pressure;altitude;pressure_sealevel;temperature
73937;BMP180;59249;59.736;30.568;2022-09-01T00:00:10;100624.00;;;7.50
73937;BMP180;59249;59.736;30.568;2022-09-01T00:02:41;100619.00;;;7.50
73937;BMP180;59249;59.736;30.568;2022-09-01T00:05:12;100608.00;;;7.50
73937;BMP180;59249;59.736;30.568;2022-09-01T00:07:41;100614.00;;;7.50
73937;BMP180;59249;59.736;30.568;2022-09-01T00:10:10;100620.00;;;7.50
73937;BMP180;59249;59.736;30.568;2022-09-01T00:12:56;100606.00;;;7.50
73937;BMP180;59249;59.736;30.568;2022-09-01T00:15:26;100610.00;;;7.50
73937;BMP180;59249;59.736;30.568;2022-09-01T00:17:55;100599.00;;;7.60
73937;BMP180;59249;59.736;30.568;2022-09-01T00:20:25;100619.00;;;7.50
73937;BMP180;59249;59.736;30.568;2022-09-01T00:22:56;100607.00;;;7.50
73937;BMP180;59249;59.736;30.568;2022-09-01T00:25:27;100603.00;;;7.50
73937;BMP180;59249;59.736;30.568;2022-09-01T00:27:56;100612.00;;;7.50
73937;BMP180;59249;59.736;30.568;2022-09-01T00:30:26;100599.00;;;7.40
73937;BMP180;59249;59.736;30.568;2022-09-01T00:32:55;100606.00;;;7.50
73937;BMP180;59249;59.736;30.568;2022-09-01T00:35:25;100610.00;;;7.40
73937;BMP180;59249;59.736;30.568;2022-09-01T00:37:54;100592.00;;;7.40
73937;BMP180;59249;59.736;30.568;2022-09-01T00:40:23;100592.00;;;7.40
73937;BMP180;59249;59.736;30.568;2022-09-01T00:42:52;100577.00;;;7.40
73937;BMP180;59249;59.736;30.568;2022-09-01T00:45:21;100587.00;;;7.40
73937;BMP180;59249;59.736;30.568;2022-09-01T00:47:51;100596.00;;;7.40
73937;BMP180;59249;59.736;30.568;2022-09-01T00:50:20;100600.00;;;7.20
73937;BMP180;59249;59.736;30.568;2022-09-01T00:52:51;100570.00;;;7.20
73937;BMP180;59249;59.736;30.568;2022-09-01T00:55:24;100571.00;;;7.20
73937;BMP180;59249;59.736;30.568;2022-09-01T00:57:59;100587.00;;;7.20
73937;BMP180;59249;59.736;30.568;2022-09-01T01:00:32;100583.00;;;7.30
73937;BMP180;59249;59.736;30.568;2022-09-01T01:03:08;100576.00;;;7.30
73937;BMP180;59249;59.736;30.568;2022-09-01T01:05:39;100587.00;;;7.20
73937;BMP180;59249;59.736;30.568;2022-09-01T01:08:14;100540.00;;;7.30
73937;BMP180;59249;59.736;30.568;2022-09-01T01:10:46;100579.00;;;7.20
73937;BMP180;59249;59.736;30.568;2022-09-01T01:13:15;100563.00;;;7.30
73937;BMP180;59249;59.736;30.568;2022-09-01T01:15:45;100564.00;;;7.10
73937;BMP180;59249;59.736;30.568;2022-09-01T01:18:15;100556.00;;;7.20
73937;BMP180;59249;59.736;30.568;2022-09-01T01:20:57;100545.00;;;7.20
73937;BMP180;59249;59.736;30.568;2022-09-01T01:23:51;100545.00;;;7.20
73937;BMP180;59249;59.736;30.568;2022-09-01T01:26:26;100560.00;;;7.10
73937;BMP180;59249;59.736;30.568;2022-09-01T01:28:55;100555.00;;;7.20
73937;BMP180;59249;59.736;30.568;2022-09-01T01:31:25;100550.00;;;7.00
73937;BMP180;59249;59.736;30.568;2022-09-01T01:33:55;100550.00;;;7.10
73937;BMP180;59249;59.736;30.568;2022-09-01T01:36:27;100552.00;;;7.10
73937;BMP180;59249;59.736;30.568;2022-09-01T01:39:08;100547.00;;;7.10
73937;BMP180;59249;59.736;30.568;2022-09-01T01:41:44;100551.00;;;7.20
73937;BMP180;59249;59.736;30.568;2022-09-01T01:44:17;100550.00;;;7.20
73937;BMP180;59249;59.736;30.568;2022-09-01T01:46:51;100532.00;;;7.20
73937;BMP180;59249;59.736;30.568;2022-09-01T01:49:25;100523.00;;;7.20
73937;BMP180;59249;59.736;30.568;2022-09-01T01:51:57;100543.00;;;7.20
73937;BMP180;59249;59.736;30.568;2022-09-01T01:54:30;100539.00;;;7.20
73937;BMP180;59249;59.736;30.568;2022-09-01T01:57:01;100546.00;;;7.20
73937;BMP180;59249;59.736;30.568;2022-09-01T01:59:30;100539.00;;;7.20
73937;BMP180;59249;59.736;30.568;2022-09-01T02:02:00;100555.00;;;7.20
73937;BMP180;59249;59.736;30.568;2022-09-01T02:04:35;100537.00;;;7.30
73937;BMP180;59249;59.736;30.568;2022-09-01T02:07:10;100528.00;;;7.30
73937;BMP180;59249;59.736;30.568;2022-09-01T02:09:40;100547.00;;;7.30
73937;BMP180;59249;59.736;30.568;2022-09-01T02:12:16;100545.00;;;7.20
73937;BMP180;59249;59.736;30.568;2022-09-01T02:14:45;100540.00;;;7.30
73937;BMP180;59249;59.736;30.568;2022-09-01T02:17:16;100531.00;;;7.30
73937;BMP180;59249;59.736;30.568;2022-09-01T02:19:46;100548.00;;;7.20
73937;BMP180;59249;59.736;30.568;2022-09-01T02:22:15;100532.00;;;7.20
73937;BMP180;59249;59.736;30.568;2022-09-01T02:24:45;100542.00;;;7.20
73937;BMP180;59249;59.736;30.568;2022-09-01T02:27:17;100526.00;;;7.20
73937;BMP180;59249;59.736;30.568;2022-09-01T02:29:51;100547.00;;;7.20
73937;BMP180;59249;59.736;30.568;2022-09-01T02:32:22;100531.00;;;7.20
73937;BMP180;59249;59.736;30.568;2022-09-01T02:34:51;100529.00;;;7.10
73937;BMP180;59249;59.736;30.568;2022-09-01T02:37:29;100542.00;;;7.10
73937;BMP180;59249;59.736;30.568;2022-09-01T02:39:58;100536.00;;;7.20
73937;BMP180;59249;59.736;30.568;2022-09-01T02:42:30;100557.00;;;7.20
73937;BMP180;59249;59.736;30.568;2022-09-01T02:44:59;100515.00;;;7.10
73937;BMP180;59249;59.736;30.568;2022-09-01T02:47:30;100518.00;;;7.10
73937;BMP180;59249;59.736;30.568;2022-09-01T02:49:58;100518.00;;;7.20
73937;BMP180;59249;59.736;30.568;2022-09-01T02:52:29;100527.00;;;7.10
73937;BMP180;59249;59.736;30.568;2022-09-01T02:55:04;100532.00;;;7.20
73937;BMP180;59249;59.736;30.568;2022-09-01T02:57:35;100547.00;;;7.10
73937;BMP180;59249;59.736;30.568;2022-09-01T03:00:06;100532.00;;;7.20
73937;BMP180;59249;59.736;30.568;2022-09-01T03:02:48;100542.00;;;7.10
73937;BMP180;59249;59.736;30.568;2022-09-01T03:05:20;100521.00;;;7.10
73937;BMP180;59249;59.736;30.568;2022-09-01T03:07:53;100532.00;;;7.20
73937;BMP180;59249;59.736;30.568;2022-09-01T03:10:28;100534.00;;;7.20
73937;BMP180;59249;59.736;30.568;2022-09-01T03:13:03;100528.00;;;7.10
73937;BMP180;59249;59.736;30.568;2022-09-01T03:15:35;100530.00;;;7.10
73937;BMP180;59249;59.736;30.568;2022-09-01T03:18:06;100534.00;;;7.10
73937;BMP180;59249;59.736;30.568;2022-09-01T03:20:38;100540.00;;;7.20
73937;BMP180;59249;59.736;30.568;2022-09-01T03:23:13;100545.00;;;7.20
73937;BMP180;59249;59.736;30.568;2022-09-01T03:25:47;100542.00;;;7.10
73937;BMP180;59249;59.736;30.568;2022-09-01T03:28:17;100536.00;;;7.20
73937;BMP180;59249;59.736;30.568;2022-09-01T03:30:49;100513.00;;;7.20
73937;BMP180;59249;59.736;30.568;2022-09-01T03:33:22;100511.00;;;7.20
73937;BMP180;59249;59.736;30.568;2022-09-01T03:35:54;100522.00;;;7.30
73937;BMP180;59249;59.736;30.568;2022-09-01T03:38:24;100525.00;;;7.20
73937;BMP180;59249;59.736;30.568;2022-09-01T03:40:56;100548.00;;;7.10
73937;BMP180;59249;59.736;30.568;2022-09-01T03:43:32;100529.00;;;7.20
73937;BMP180;59249;59.736;30.568;2022-09-01T03:46:03;100528.00;;;7.20
73937;BMP180;59249;59.736;30.568;2022-09-01T03:48:32;100524.00;;;7.20
73937;BMP180;59249;59.736;30.568;2022-09-01T03:51:01;100533.00;;;7.10
73937;BMP180;59249;59.736;30.568;2022-09-01T03:53:33;100526.00;;;7.20
73937;BMP180;59249;59.736;30.568;2022-09-01T03:56:05;100516.00;;;7.20
73937;BMP180;59249;59.736;30.568;2022-09-01T03:58:38;100535.00;;;7.30
73937;BMP180;59249;59.736;30.568;2022-09-01T04:01:12;100502.00;;;7.30
73937;BMP180;59249;59.736;30.568;2022-09-01T04:03:42;100524.00;;;7.30
73937;BMP180;59249;59.736;30.568;2022-09-01T04:06:18;100529.00;;;7.30
73937;BMP180;59249;59.736;30.568;2022-09-01T04:08:50;100520.00;;;7.30
73937;BMP180;59249;59.736;30.568;2022-09-01T04:11:31;100510.00;;;7.40
73937;BMP180;59249;59.736;30.568;2022-09-01T04:14:02;100519.00;;;7.40
73937;BMP180;59249;59.736;30.568;2022-09-01T04:16:34;100504.00;;;7.40
73937;BMP180;59249;59.736;30.568;2022-09-01T04:19:36;100508.00;;;7.30
73937;BMP180;59249;59.736;30.568;2022-09-01T04:22:08;100507.00;;;7.30
73937;BMP180;59249;59.736;30.568;2022-09-01T04:24:44;100521.00;;;7.40
73937;BMP180;59249;59.736;30.568;2022-09-01T04:27:14;100505.00;;;7.30
73937;BMP180;59249;59.736;30.568;2022-09-01T04:29:51;100515.00;;;7.40
73937;BMP180;59249;59.736;30.568;2022-09-01T04:32:25;100509.00;;;7.40
73937;BMP180;59249;59.736;30.568;2022-09-01T04:34:57;100514.00;;;7.40
73937;BMP180;59249;59.736;30.568;2022-09-01T04:37:28;100520.00;;;7.40
73937;BMP180;59249;59.736;30.568;2022-09-01T04:40:01;100525.00;;;7.40
73937;BMP180;59249;59.736;30.568;2022-09-01T04:42:32;100507.00;;;7.50
73937;BMP180;59249;59.736;30.568;2022-09-01T04:45:04;100510.00;;;7.50
73937;BMP180;59249;59.736;30.568;2022-09-01T04:47:42;100513.00;;;7.60
73937;BMP180;59249;59.736;30.568;2022-09-01T04:50:15;100521.00;;;7.50
73937;BMP180;59249;59.736;30.568;2022-09-01T04:53:03;100511.00;;;7.50
73937;BMP180;59249;59.736;30.568;2022-09-01T04:55:40;100518.00;;;7.50
73937;BMP180;59249;59.736;30.568;2022-09-01T04:58:13;100518.00;;;7.60
73937;BMP180;59249;59.736;30.568;2022-09-01T05:00:47;100534.00;;;7.60
73937;BMP180;59249;59.736;30.568;2022-09-01T05:03:20;100516.00;;;7.70
73937;BMP180;59249;59.736;30.568;2022-09-01T05:05:55;100513.00;;;7.70
73937;BMP180;59249;59.736;30.568;2022-09-01T05:08:31;100516.00;;;7.60
73937;BMP180;59249;59.736;30.568;2022-09-01T05:11:14;100509.00;;;7.70
73937;BMP180;59249;59.736;30.568;2022-09-01T05:13:49;100516.00;;;7.80
73937;BMP180;59249;59.736;30.568;2022-09-01T05:16:52;100519.00;;;7.70
73937;BMP180;59249;59.736;30.568;2022-09-01T05:19:51;100533.00;;;7.70
73937;BMP180;59249;59.736;30.568;2022-09-01T05:22:22;100522.00;;;7.70
73937;BMP180;59249;59.736;30.568;2022-09-01T05:25:05;100517.00;;;7.80
73937;BMP180;59249;59.736;30.568;2022-09-01T05:27:44;100536.00;;;7.90
73937;BMP180;59249;59.736;30.568;2022-09-01T05:30:20;100523.00;;;8.00
73937;BMP180;59249;59.736;30.568;2022-09-01T05:32:51;100521.00;;;7.90
73937;BMP180;59249;59.736;30.568;2022-09-01T05:35:21;100522.00;;;7.90
73937;BMP180;59249;59.736;30.568;2022-09-01T05:37:59;100535.00;;;7.90
73937;BMP180;59249;59.736;30.568;2022-09-01T05:40:29;100526.00;;;8.00
73937;BMP180;59249;59.736;30.568;2022-09-01T05:42:58;100528.00;;;8.00
73937;BMP180;59249;59.736;30.568;2022-09-01T05:45:28;100528.00;;;8.00
73937;BMP180;59249;59.736;30.568;2022-09-01T05:48:19;100536.00;;;8.10
73937;BMP180;59249;59.736;30.568;2022-09-01T05:51:04;100533.00;;;8.20
73937;BMP180;59249;59.736;30.568;2022-09-01T05:53:55;100542.00;;;8.10
73937;BMP180;59249;59.736;30.568;2022-09-01T05:56:29;100531.00;;;8.10
73937;BMP180;59249;59.736;30.568;2022-09-01T05:58:59;100537.00;;;8.20
73937;BMP180;59249;59.736;30.568;2022-09-01T06:01:50;100536.00;;;8.00
73937;BMP180;59249;59.736;30.568;2022-09-01T06:04:23;100544.00;;;8.30
73937;BMP180;59249;59.736;30.568;2022-09-01T06:07:01;100544.00;;;8.20
73937;BMP180;59249;59.736;30.568;2022-09-01T06:09:48;100539.00;;;8.20
73937;BMP180;59249;59.736;30.568;2022-09-01T06:12:22;100554.00;;;8.10
73937;BMP180;59249;59.736;30.568;2022-09-01T06:14:53;100553.00;;;8.20
73937;BMP180;59249;59.736;30.568;2022-09-01T06:17:25;100538.00;;;8.20
73937;BMP180;59249;59.736;30.568;2022-09-01T06:20:06;100554.00;;;8.40
73937;BMP180;59249;59.736;30.568;2022-09-01T06:22:46;100534.00;;;8.40
73937;BMP180;59249;59.736;30.568;2022-09-01T06:25:19;100560.00;;;8.30
73937;BMP180;59249;59.736;30.568;2022-09-01T06:27:49;100550.00;;;8.40
73937;BMP180;59249;59.736;30.568;2022-09-01T06:30:21;100559.00;;;8.40
73937;BMP180;59249;59.736;30.568;2022-09-01T06:33:03;100544.00;;;8.40
73937;BMP180;59249;59.736;30.568;2022-09-01T06:35:52;100539.00;;;8.50
73937;BMP180;59249;59.736;30.568;2022-09-01T06:38:25;100552.00;;;8.40
73937;BMP180;59249;59.736;30.568;2022-09-01T06:40:59;100553.00;;;8.40
73937;BMP180;59249;59.736;30.568;2022-09-01T06:43:31;100550.00;;;8.40
73937;BMP180;59249;59.736;30.568;2022-09-01T06:46:00;100542.00;;;8.50
73937;BMP180;59249;59.736;30.568;2022-09-01T06:48:30;100554.00;;;8.60
73937;BMP180;59249;59.736;30.568;2022-09-01T06:51:05;100548.00;;;8.70
73937;BMP180;59249;59.736;30.568;2022-09-01T06:53:50;100567.00;;;8.60
73937;BMP180;59249;59.736;30.568;2022-09-01T06:56:27;100564.00;;;8.50
73937;BMP180;59249;59.736;30.568;2022-09-01T06:59:00;100553.00;;;8.50
73937;BMP180;59249;59.736;30.568;2022-09-01T07:01:34;100569.00;;;8.60
73937;BMP180;59249;59.736;30.568;2022-09-01T07:04:06;100556.00;;;8.70
73937;BMP180;59249;59.736;30.568;2022-09-01T07:06:43;100564.00;;;8.60
73937;BMP180;59249;59.736;30.568;2022-09-01T07:09:55;100564.00;;;8.70
73937;BMP180;59249;59.736;30.568;2022-09-01T07:12:49;100574.00;;;8.70
73937;BMP180;59249;59.736;30.568;2022-09-01T07:15:41;100575.00;;;8.70
73937;BMP180;59249;59.736;30.568;2022-09-01T07:18:39;100577.00;;;8.70
73937;BMP180;59249;59.736;30.568;2022-09-01T07:21:10;100578.00;;;8.60
73937;BMP180;59249;59.736;30.568;2022-09-01T07:24:01;100596.00;;;8.70
73937;BMP180;59249;59.736;30.568;2022-09-01T07:26:54;100578.00;;;8.80
73937;BMP180;59249;59.736;30.568;2022-09-01T07:29:34;100572.00;;;8.80
73937;BMP180;59249;59.736;30.568;2022-09-01T07:32:04;100583.00;;;8.80
73937;BMP180;59249;59.736;30.568;2022-09-01T07:34:54;100590.00;;;8.80
73937;BMP180;59249;59.736;30.568;2022-09-01T07:37:28;100582.00;;;8.70
73937;BMP180;59249;59.736;30.568;2022-09-01T07:40:22;100601.00;;;8.70
73937;BMP180;59249;59.736;30.568;2022-09-01T07:43:35;100601.00;;;8.60
73937;BMP180;59249;59.736;30.568;2022-09-01T07:46:24;100590.00;;;8.70
73937;BMP180;59249;59.736;30.568;2022-09-01T07:49:17;100590.00;;;8.60
73937;BMP180;59249;59.736;30.568;2022-09-01T07:52:07;100589.00;;;8.60
73937;BMP180;59249;59.736;30.568;2022-09-01T07:54:37;100601.00;;;8.70
73937;BMP180;59249;59.736;30.568;2022-09-01T07:57:08;100603.00;;;8.60
73937;BMP180;59249;59.736;30.568;2022-09-01T07:59:37;100633.00;;;8.60
73937;BMP180;59249;59.736;30.568;2022-09-01T08:02:14;100592.00;;;8.70
73937;BMP180;59249;59.736;30.568;2022-09-01T08:04:46;100604.00;;;8.40
73937;BMP180;59249;59.736;30.568;2022-09-01T08:07:18;100614.00;;;8.40
73937;BMP180;59249;59.736;30.568;2022-09-01T08:09:51;100598.00;;;8.40
73937;BMP180;59249;59.736;30.568;2022-09-01T08:12:30;100625.00;;;8.40
73937;BMP180;59249;59.736;30.568;2022-09-01T08:15:00;100622.00;;;8.40
73937;BMP180;59249;59.736;30.568;2022-09-01T08:17:51;100605.00;;;8.50
73937;BMP180;59249;59.736;30.568;2022-09-01T08:20:25;100612.00;;;8.40
73937;BMP180;59249;59.736;30.568;2022-09-01T08:22:58;100640.00;;;8.50
73937;BMP180;59249;59.736;30.568;2022-09-01T08:25:35;100622.00;;;8.50
73937;BMP180;59249;59.736;30.568;2022-09-01T08:28:06;100620.00;;;8.50
73937;BMP180;59249;59.736;30.568;2022-09-01T08:30:38;100617.00;;;8.50
73937;BMP180;59249;59.736;30.568;2022-09-01T08:33:18;100628.00;;;8.40
73937;BMP180;59249;59.736;30.568;2022-09-01T08:35:48;100624.00;;;8.50
73937;BMP180;59249;59.736;30.568;2022-09-01T08:38:21;100659.00;;;8.50
73937;BMP180;59249;59.736;30.568;2022-09-01T08:40:53;100667.00;;;8.50
73937;BMP180;59249;59.736;30.568;2022-09-01T08:43:39;100615.00;;;8.60
73937;BMP180;59249;59.736;30.568;2022-09-01T08:46:23;100645.00;;;8.60
73937;BMP180;59249;59.736;30.568;2022-09-01T08:48:56;100647.00;;;8.60
73937;BMP180;59249;59.736;30.568;2022-09-01T08:52:18;100643.00;;;8.70
73937;BMP180;59249;59.736;30.568;2022-09-01T08:54:59;100646.00;;;8.80
73937;BMP180;59249;59.736;30.568;2022-09-01T08:57:35;100652.00;;;8.50
73937;BMP180;59249;59.736;30.568;2022-09-01T09:00:24;100644.00;;;8.60
73937;BMP180;59249;59.736;30.568;2022-09-01T09:03:15;100660.00;;;8.50
73937;BMP180;59249;59.736;30.568;2022-09-01T09:06:14;100655.00;;;8.60
73937;BMP180;59249;59.736;30.568;2022-09-01T09:08:53;100670.00;;;8.60
73937;BMP180;59249;59.736;30.568;2022-09-01T09:14:56;100666.00;;;8.80
73937;BMP180;59249;59.736;30.568;2022-09-01T09:17:48;100663.00;;;8.80
73937;BMP180;59249;59.736;30.568;2022-09-01T09:20:27;100675.00;;;8.80
73937;BMP180;59249;59.736;30.568;2022-09-01T09:22:56;100655.00;;;8.80
73937;BMP180;59249;59.736;30.568;2022-09-01T09:25:30;100658.00;;;9.00
73937;BMP180;59249;59.736;30.568;2022-09-01T09:28:00;100665.00;;;9.10
73937;BMP180;59249;59.736;30.568;2022-09-01T09:30:29;100684.00;;;9.10
73937;BMP180;59249;59.736;30.568;2022-09-01T09:33:02;100674.00;;;9.10
73937;BMP180;59249;59.736;30.568;2022-09-01T09:35:53;100709.00;;;9.10
73937;BMP180;59249;59.736;30.568;2022-09-01T09:38:24;100698.00;;;9.10
73937;BMP180;59249;59.736;30.568;2022-09-01T09:41:00;100684.00;;;9.10
73937;BMP180;59249;59.736;30.568;2022-09-01T09:43:47;100712.00;;;9.20
73937;BMP180;59249;59.736;30.568;2022-09-01T09:46:25;100705.00;;;9.10
73937;BMP180;59249;59.736;30.568;2022-09-01T09:49:15;100709.00;;;9.20
73937;BMP180;59249;59.736;30.568;2022-09-01T09:52:15;100705.00;;;9.30
73937;BMP180;59249;59.736;30.568;2022-09-01T09:55:00;100708.00;;;9.40
73937;BMP180;59249;59.736;30.568;2022-09-01T09:57:31;100717.00;;;9.20
73937;BMP180;59249;59.736;30.568;2022-09-01T10:00:24;100702.00;;;9.30
73937;BMP180;59249;59.736;30.568;2022-09-01T10:02:57;100707.00;;;9.10
73937;BMP180;59249;59.736;30.568;2022-09-01T10:05:39;100721.00;;;9.30
73937;BMP180;59249;59.736;30.568;2022-09-01T10:08:12;100713.00;;;9.30
73937;BMP180;59249;59.736;30.568;2022-09-01T10:10:57;100727.00;;;9.30
73937;BMP180;59249;59.736;30.568;2022-09-01T10:13:27;100732.00;;;9.30
73937;BMP180;59249;59.736;30.568;2022-09-01T10:16:00;100731.00;;;9.30
73937;BMP180;59249;59.736;30.568;2022-09-01T10:18:35;100720.00;;;9.30
73937;BMP180;59249;59.736;30.568;2022-09-01T10:21:12;100744.00;;;9.30
73937;BMP180;59249;59.736;30.568;2022-09-01T10:23:44;100721.00;;;9.40
73937;BMP180;59249;59.736;30.568;2022-09-01T10:26:15;100731.00;;;9.40
73937;BMP180;59249;59.736;30.568;2022-09-01T10:28:53;100734.00;;;9.30
73937;BMP180;59249;59.736;30.568;2022-09-01T10:31:28;100747.00;;;9.00
73937;BMP180;59249;59.736;30.568;2022-09-01T10:34:01;100745.00;;;9.10
73937;BMP180;59249;59.736;30.568;2022-09-01T10:36:34;100763.00;;;9.20
73937;BMP180;59249;59.736;30.568;2022-09-01T10:39:03;100752.00;;;9.10
73937;BMP180;59249;59.736;30.568;2022-09-01T10:41:49;100768.00;;;9.10
73937;BMP180;59249;59.736;30.568;2022-09-01T10:44:28;100743.00;;;9.10
73937;BMP180;59249;59.736;30.568;2022-09-01T10:47:07;100780.00;;;9.00
73937;BMP180;59249;59.736;30.568;2022-09-01T10:50:03;100756.00;;;9.20
73937;BMP180;59249;59.736;30.568;2022-09-01T10:53:00;100759.00;;;9.30
73937;BMP180;59249;59.736;30.568;2022-09-01T10:55:42;100782.00;;;9.20
73937;BMP180;59249;59.736;30.568;2022-09-01T10:58:32;100783.00;;;9.20
73937;BMP180;59249;59.736;30.568;2022-09-01T11:02:03;100786.00;;;8.90
73937;BMP180;59249;59.736;30.568;2022-09-01T11:05:15;100785.00;;;8.90
73937;BMP180;59249;59.736;30.568;2022-09-01T11:07:47;100788.00;;;9.00
73937;BMP180;59249;59.736;30.568;2022-09-01T11:10:50;100803.00;;;8.90
73937;BMP180;59249;59.736;30.568;2022-09-01T11:13:40;100805.00;;;8.90
73937;BMP180;59249;59.736;30.568;2022-09-01T11:16:29;100780.00;;;8.90
73937;BMP180;59249;59.736;30.568;2022-09-01T11:19:38;100798.00;;;8.70
73937;BMP180;59249;59.736;30.568;2022-09-01T11:31:20;100797.00;;;8.80
73937;BMP180;59249;59.736;30.568;2022-09-01T11:34:01;100804.00;;;8.70
73937;BMP180;59249;59.736;30.568;2022-09-01T11:36:53;100798.00;;;8.70
73937;BMP180;59249;59.736;30.568;2022-09-01T11:39:32;100808.00;;;8.70
73937;BMP180;59249;59.736;30.568;2022-09-01T11:42:10;100811.00;;;8.70
73937;BMP180;59249;59.736;30.568;2022-09-01T11:44:51;100800.00;;;8.70
73937;BMP180;59249;59.736;30.568;2022-09-01T11:47:26;100802.00;;;8.50
73937;BMP180;59249;59.736;30.568;2022-09-01T11:50:00;100798.00;;;8.50
73937;BMP180;59249;59.736;30.568;2022-09-01T11:52:34;100794.00;;;8.50
73937;BMP180;59249;59.736;30.568;2022-09-01T11:55:09;100814.00;;;8.30
73937;BMP180;59249;59.736;30.568;2022-09-01T11:57:39;100818.00;;;8.30
73937;BMP180;59249;59.736;30.568;2022-09-01T12:00:26;100814.00;;;8.30
73937;BMP180;59249;59.736;30.568;2022-09-01T12:02:59;100811.00;;;8.40
73937;BMP180;59249;59.736;30.568;2022-09-01T12:05:53;100801.00;;;8.60
73937;BMP180;59249;59.736;30.568;2022-09-01T12:08:27;100805.00;;;8.60
73937;BMP180;59249;59.736;30.568;2022-09-01T12:11:11;100819.00;;;8.60
73937;BMP180;59249;59.736;30.568;2022-09-01T12:13:54;100831.00;;;8.60
73937;BMP180;59249;59.736;30.568;2022-09-01T12:16:27;100838.00;;;8.60
73937;BMP180;59249;59.736;30.568;2022-09-01T12:18:59;100804.00;;;8.70
73937;BMP180;59249;59.736;30.568;2022-09-01T12:21:30;100814.00;;;8.70
73937;BMP180;59249;59.736;30.568;2022-09-01T12:24:14;100805.00;;;8.80
73937;BMP180;59249;59.736;30.568;2022-09-01T12:26:50;100806.00;;;8.70
73937;BMP180;59249;59.736;30.568;2022-09-01T12:32:24;100806.00;;;8.70
73937;BMP180;59249;59.736;30.568;2022-09-01T12:35:03;100813.00;;;8.70
73937;BMP180;59249;59.736;30.568;2022-09-01T12:37:39;100814.00;;;8.70
73937;BMP180;59249;59.736;30.568;2022-09-01T12:40:24;100816.00;;;8.70
73937;BMP180;59249;59.736;30.568;2022-09-01T12:43:00;100815.00;;;8.60
73937;BMP180;59249;59.736;30.568;2022-09-01T12:45:40;100829.00;;;8.60
73937;BMP180;59249;59.736;30.568;2022-09-01T12:48:27;100813.00;;;8.80
73937;BMP180;59249;59.736;30.568;2022-09-01T12:51:01;100814.00;;;8.70
73937;BMP180;59249;59.736;30.568;2022-09-01T12:53:34;100815.00;;;8.80
73937;BMP180;59249;59.736;30.568;2022-09-01T12:56:23;100814.00;;;8.90
73937;BMP180;59249;59.736;30.568;2022-09-01T12:59:07;100828.00;;;8.90
73937;BMP180;59249;59.736;30.568;2022-09-01T13:01:43;100838.00;;;8.90
73937;BMP180;59249;59.736;30.568;2022-09-01T13:04:26;100844.00;;;9.10
73937;BMP180;59249;59.736;30.568;2022-09-01T13:07:01;100830.00;;;9.30
73937;BMP180;59249;59.736;30.568;2022-09-01T13:09:31;100818.00;;;9.20
73937;BMP180;59249;59.736;30.568;2022-09-01T13:12:17;100825.00;;;9.10
73937;BMP180;59249;59.736;30.568;2022-09-01T13:14:48;100831.00;;;9.20
73937;BMP180;59249;59.736;30.568;2022-09-01T13:17:18;100828.00;;;9.20
73937;BMP180;59249;59.736;30.568;2022-09-01T13:19:49;100847.00;;;9.20
73937;BMP180;59249;59.736;30.568;2022-09-01T13:22:19;100865.00;;;9.00
73937;BMP180;59249;59.736;30.568;2022-09-01T13:24:48;100847.00;;;8.90
73937;BMP180;59249;59.736;30.568;2022-09-01T13:27:17;100835.00;;;9.00
73937;BMP180;59249;59.736;30.568;2022-09-01T13:29:48;100834.00;;;9.00
73937;BMP180;59249;59.736;30.568;2022-09-01T13:32:18;100850.00;;;9.10
73937;BMP180;59249;59.736;30.568;2022-09-01T13:35:06;100831.00;;;9.10
73937;BMP180;59249;59.736;30.568;2022-09-01T13:37:36;100855.00;;;9.00
73937;BMP180;59249;59.736;30.568;2022-09-01T13:40:06;100853.00;;;9.00
73937;BMP180;59249;59.736;30.568;2022-09-01T13:42:43;100866.00;;;9.20
73937;BMP180;59249;59.736;30.568;2022-09-01T13:45:16;100864.00;;;9.20
73937;BMP180;59249;59.736;30.568;2022-09-01T13:47:48;100870.00;;;9.10
73937;BMP180;59249;59.736;30.568;2022-09-01T13:50:43;100872.00;;;9.10
73937;BMP180;59249;59.736;30.568;2022-09-01T13:53:32;100870.00;;;9.10
73937;BMP180;59249;59.736;30.568;2022-09-01T13:56:02;100874.00;;;9.00
73937;BMP180;59249;59.736;30.568;2022-09-01T13:58:33;100865.00;;;9.00
73937;BMP180;59249;59.736;30.568;2022-09-01T14:01:03;100873.00;;;9.00
73937;BMP180;59249;59.736;30.568;2022-09-01T14:03:33;100876.00;;;9.00
73937;BMP180;59249;59.736;30.568;2022-09-01T14:06:05;100889.00;;;8.90
73937;BMP180;59249;59.736;30.568;2022-09-01T14:08:36;100877.00;;;8.90
73937;BMP180;59249;59.736;30.568;2022-09-01T14:11:05;100880.00;;;9.00
73937;BMP180;59249;59.736;30.568;2022-09-01T14:13:34;100875.00;;;9.00
73937;BMP180;59249;59.736;30.568;2022-09-01T14:16:09;100885.00;;;9.10
73937;BMP180;59249;59.736;30.568;2022-09-01T14:18:38;100897.00;;;9.10
73937;BMP180;59249;59.736;30.568;2022-09-01T14:21:14;100898.00;;;9.20
73937;BMP180;59249;59.736;30.568;2022-09-01T14:23:43;100890.00;;;9.10
73937;BMP180;59249;59.736;30.568;2022-09-01T14:26:14;100891.00;;;9.20
73937;BMP180;59249;59.736;30.568;2022-09-01T14:28:44;100898.00;;;9.20
73937;BMP180;59249;59.736;30.568;2022-09-01T14:31:16;100918.00;;;9.20
73937;BMP180;59249;59.736;30.568;2022-09-01T14:33:47;100918.00;;;9.10
73937;BMP180;59249;59.736;30.568;2022-09-01T14:36:20;100919.00;;;9.10
73937;BMP180;59249;59.736;30.568;2022-09-01T14:38:51;100938.00;;;8.80
73937;BMP180;59249;59.736;30.568;2022-09-01T14:41:22;100917.00;;;8.90
73937;BMP180;59249;59.736;30.568;2022-09-01T14:43:54;100917.00;;;8.70
73937;BMP180;59249;59.736;30.568;2022-09-01T14:46:29;100899.00;;;8.60
73937;BMP180;59249;59.736;30.568;2022-09-01T14:49:00;100914.00;;;8.50
73937;BMP180;59249;59.736;30.568;2022-09-01T14:51:32;100911.00;;;8.50
73937;BMP180;59249;59.736;30.568;2022-09-01T14:54:22;100929.00;;;8.40
73937;BMP180;59249;59.736;30.568;2022-09-01T14:56:50;100933.00;;;8.40
73937;BMP180;59249;59.736;30.568;2022-09-01T14:59:40;100926.00;;;8.40
73937;BMP180;59249;59.736;30.568;2022-09-01T15:02:10;100933.00;;;8.20
73937;BMP180;59249;59.736;30.568;2022-09-01T15:04:39;100943.00;;;8.10